sensor_id;sensor_type;location;lat;lon;timestamp;P1;durP1;ratioP1;P2;durP2;ratioP2
30533;SDS011;17318;52.390;9.754;2023-02-28T00:00:06;12.98;;;4.07;;
30533;SDS011;17318;52.390;9.754;2023-02-28T00:02:40;9.43;;;3.75;;
30533;SDS011;17318;52.390;9.754;2023-02-28T00:05:07;9.10;;;3.58;;
30533;SDS011;17318;52.390;9.754;2023-02-28T00:07:35;9.70;;;3.88;;
30533;SDS011;17318;52.390;9.754;2023-02-28T00:10:02;8.05;;;2.70;;
30533;SDS011;17318;52.390;9.754;2023-02-28T00:12:29;10.25;;;3.88;;
30533;SDS011;17318;52.390;9.754;2023-02-28T00:14:55;6.93;;;3.55;;
30533;SDS011;17318;52.390;9.754;2023-02-28T00:17:20;11.38;;;3.92;;
30533;SDS011;17318;52.390;9.754;2023-02-28T00:19:50;7.75;;;4.15;;
30533;SDS011;17318;52.390;9.754;2023-02-28T00:22:17;7.72;;;4.05;;
30533;SDS011;17318;52.390;9.754;2023-02-28T00:24:44;7.93;;;3.72;;
30533;SDS011;17318;52.390;9.754;2023-02-28T00:27:10;9.23;;;4.35;;
30533;SDS011;17318;52.390;9.754;2023-02-28T00:29:36;7.80;;;4.10;;
30533;SDS011;17318;52.390;9.754;2023-02-28T00:32:02;13.52;;;4.72;;
30533;SDS011;17318;52.390;9.754;2023-02-28T00:34:29;9.77;;;3.85;;
30533;SDS011;17318;52.390;9.754;2023-02-28T00:36:55;7.70;;;3.50;;
30533;SDS011;17318;52.390;9.754;2023-02-28T00:39:20;8.40;;;3.55;;
30533;SDS011;17318;52.390;9.754;2023-02-28T00:41:46;11.38;;;3.72;;
30533;SDS011;17318;52.390;9.754;2023-02-28T00:44:13;7.80;;;4.00;;
30533;SDS011;17318;52.390;9.754;2023-02-28T00:46:38;11.88;;;3.60;;
30533;SDS011;17318;52.390;9.754;2023-02-28T00:49:04;14.15;;;4.00;;
30533;SDS011;17318;52.390;9.754;2023-02-28T00:51:30;5.75;;;3.20;;
30533;SDS011;17318;52.390;9.754;2023-02-28T00:53:56;7.28;;;3.35;;
30533;SDS011;17318;52.390;9.754;2023-02-28T00:56:21;9.35;;;3.42;;
30533;SDS011;17318;52.390;9.754;2023-02-28T00:58:47;7.85;;;3.50;;
30533;SDS011;17318;52.390;9.754;2023-02-28T01:01:13;7.47;;;3.38;;
30533;SDS011;17318;52.390;9.754;2023-02-28T01:03:39;6.63;;;3.20;;
30533;SDS011;17318;52.390;9.754;2023-02-28T01:06:04;6.70;;;3.40;;
30533;SDS011;17318;52.390;9.754;2023-02-28T01:08:30;12.15;;;3.65;;
30533;SDS011;17318;52.390;9.754;2023-02-28T01:10:56;9.40;;;4.05;;
30533;SDS011;17318;52.390;9.754;2023-02-28T01:13:22;10.13;;;4.22;;
30533;SDS011;17318;52.390;9.754;2023-02-28T01:15:51;9.70;;;3.88;;
30533;SDS011;17318;52.390;9.754;2023-02-28T01:18:19;7.40;;;3.47;;
30533;SDS011;17318;52.390;9.754;2023-02-28T01:20:45;11.80;;;3.22;;
30533;SDS011;17318;52.390;9.754;2023-02-28T01:23:11;9.90;;;3.30;;
30533;SDS011;17318;52.390;9.754;2023-02-28T01:25:36;6.90;;;3.58;;
30533;SDS011;17318;52.390;9.754;2023-02-28T01:28:03;6.55;;;3.40;;
30533;SDS011;17318;52.390;9.754;2023-02-28T01:30:30;7.28;;;3.40;;
30533;SDS011;17318;52.390;9.754;2023-02-28T01:32:56;14.90;;;3.90;;
30533;SDS011;17318;52.390;9.754;2023-02-28T01:35:22;9.15;;;3.60;;
30533;SDS011;17318;52.390;9.754;2023-02-28T01:37:47;8.70;;;3.83;;
30533;SDS011;17318;52.390;9.754;2023-02-28T01:40:13;6.43;;;3.40;;
30533;SDS011;17318;52.390;9.754;2023-02-28T01:42:39;7.13;;;3.78;;
30533;SDS011;17318;52.390;9.754;2023-02-28T01:45:25;11.18;;;3.72;;
30533;SDS011;17318;52.390;9.754;2023-02-28T01:48:03;11.48;;;3.80;;
30533;SDS011;17318;52.390;9.754;2023-02-28T01:50:34;5.28;;;3.17;;
30533;SDS011;17318;52.390;9.754;2023-02-28T01:53:04;8.23;;;3.50;;
30533;SDS011;17318;52.390;9.754;2023-02-28T01:55:33;11.70;;;3.92;;
30533;SDS011;17318;52.390;9.754;2023-02-28T01:58:01;8.07;;;3.83;;
30533;SDS011;17318;52.390;9.754;2023-02-28T02:00:28;9.32;;;3.28;;
30533;SDS011;17318;52.390;9.754;2023-02-28T02:02:56;8.33;;;3.57;;
30533;SDS011;17318;52.390;9.754;2023-02-28T02:05:25;8.80;;;3.55;;
30533;SDS011;17318;52.390;9.754;2023-02-28T02:07:56;5.97;;;3.40;;
30533;SDS011;17318;52.390;9.754;2023-02-28T02:10:36;8.90;;;4.43;;
30533;SDS011;17318;52.390;9.754;2023-02-28T02:18:22;16.45;;;3.60;;
30533;SDS011;17318;52.390;9.754;2023-02-28T02:21:10;9.18;;;3.55;;
30533;SDS011;17318;52.390;9.754;2023-02-28T02:23:51;9.82;;;3.33;;
30533;SDS011;17318;52.390;9.754;2023-02-28T02:32:20;8.52;;;3.42;;
30533;SDS011;17318;52.390;9.754;2023-02-28T02:37:38;7.57;;;3.40;;
30533;SDS011;17318;52.390;9.754;2023-02-28T02:40:19;7.55;;;3.75;;
30533;SDS011;17318;52.390;9.754;2023-02-28T02:45:37;6.50;;;3.40;;
30533;SDS011;17318;52.390;9.754;2023-02-28T02:48:09;10.95;;;4.47;;
30533;SDS011;17318;52.390;9.754;2023-02-28T02:50:39;7.63;;;4.15;;
30533;SDS011;17318;52.390;9.754;2023-02-28T02:53:09;11.52;;;4.38;;
30533;SDS011;17318;52.390;9.754;2023-02-28T02:55:38;12.00;;;5.07;;
30533;SDS011;17318;52.390;9.754;2023-02-28T02:58:10;12.27;;;5.10;;
30533;SDS011;17318;52.390;9.754;2023-02-28T03:00:41;14.38;;;5.38;;
30533;SDS011;17318;52.390;9.754;2023-02-28T03:03:10;11.82;;;5.20;;
30533;SDS011;17318;52.390;9.754;2023-02-28T03:05:47;10.40;;;5.13;;
30533;SDS011;17318;52.390;9.754;2023-02-28T03:08:16;10.40;;;5.07;;
30533;SDS011;17318;52.390;9.754;2023-02-28T03:10:42;10.88;;;4.88;;
30533;SDS011;17318;52.390;9.754;2023-02-28T03:19:06;11.40;;;4.75;;
30533;SDS011;17318;52.390;9.754;2023-02-28T03:22:04;9.68;;;4.85;;
30533;SDS011;17318;52.390;9.754;2023-02-28T03:28:08;10.18;;;4.75;;
30533;SDS011;17318;52.390;9.754;2023-02-28T03:30:42;10.15;;;4.30;;
30533;SDS011;17318;52.390;9.754;2023-02-28T03:33:13;9.98;;;4.32;;
30533;SDS011;17318;52.390;9.754;2023-02-28T03:35:48;10.32;;;5.22;;
30533;SDS011;17318;52.390;9.754;2023-02-28T03:41:19;10.02;;;4.50;;
30533;SDS011;17318;52.390;9.754;2023-02-28T03:43:56;11.68;;;4.78;;
30533;SDS011;17318;52.390;9.754;2023-02-28T03:46:28;9.90;;;3.90;;
30533;SDS011;17318;52.390;9.754;2023-02-28T03:49:31;8.20;;;4.20;;
30533;SDS011;17318;52.390;9.754;2023-02-28T03:51:53;12.98;;;4.28;;
30533;SDS011;17318;52.390;9.754;2023-02-28T03:54:25;11.10;;;4.22;;
30533;SDS011;17318;52.390;9.754;2023-02-28T03:59:43;10.32;;;4.32;;
30533;SDS011;17318;52.390;9.754;2023-02-28T04:02:12;12.23;;;4.32;;
30533;SDS011;17318;52.390;9.754;2023-02-28T04:04:38;11.05;;;4.65;;
30533;SDS011;17318;52.390;9.754;2023-02-28T04:07:10;8.10;;;4.40;;
30533;SDS011;17318;52.390;9.754;2023-02-28T04:09:37;10.40;;;4.65;;
30533;SDS011;17318;52.390;9.754;2023-02-28T04:12:03;12.30;;;4.55;;
30533;SDS011;17318;52.390;9.754;2023-02-28T04:14:28;7.38;;;4.05;;
30533;SDS011;17318;52.390;9.754;2023-02-28T04:16:54;6.80;;;4.20;;
30533;SDS011;17318;52.390;9.754;2023-02-28T04:19:20;9.18;;;4.88;;
30533;SDS011;17318;52.390;9.754;2023-02-28T04:21:47;9.52;;;4.22;;
30533;SDS011;17318;52.390;9.754;2023-02-28T04:24:16;9.60;;;4.38;;
30533;SDS011;17318;52.390;9.754;2023-02-28T04:26:47;11.55;;;4.68;;
30533;SDS011;17318;52.390;9.754;2023-02-28T04:29:19;12.23;;;4.60;;
30533;SDS011;17318;52.390;9.754;2023-02-28T04:31:53;9.40;;;4.70;;
30533;SDS011;17318;52.390;9.754;2023-02-28T04:34:20;9.60;;;4.53;;
30533;SDS011;17318;52.390;9.754;2023-02-28T04:36:47;11.48;;;4.95;;
30533;SDS011;17318;52.390;9.754;2023-02-28T04:39:16;11.95;;;4.68;;
30533;SDS011;17318;52.390;9.754;2023-02-28T04:41:43;8.70;;;4.30;;
30533;SDS011;17318;52.390;9.754;2023-02-28T04:44:09;14.48;;;4.40;;
30533;SDS011;17318;52.390;9.754;2023-02-28T04:46:35;11.55;;;4.45;;
30533;SDS011;17318;52.390;9.754;2023-02-28T04:49:01;8.32;;;4.10;;
30533;SDS011;17318;52.390;9.754;2023-02-28T04:51:26;12.65;;;4.55;;
30533;SDS011;17318;52.390;9.754;2023-02-28T04:53:52;7.05;;;4.60;;
30533;SDS011;17318;52.390;9.754;2023-02-28T04:56:18;9.00;;;4.38;;
30533;SDS011;17318;52.390;9.754;2023-02-28T04:58:44;9.02;;;4.18;;
30533;SDS011;17318;52.390;9.754;2023-02-28T05:01:17;7.82;;;4.00;;
30533;SDS011;17318;52.390;9.754;2023-02-28T05:03:48;16.00;;;4.90;;
30533;SDS011;17318;52.390;9.754;2023-02-28T05:06:15;12.15;;;4.85;;
30533;SDS011;17318;52.390;9.754;2023-02-28T05:08:41;11.20;;;4.63;;
30533;SDS011;17318;52.390;9.754;2023-02-28T05:11:10;12.52;;;5.22;;
30533;SDS011;17318;52.390;9.754;2023-02-28T05:13:42;8.77;;;4.43;;
30533;SDS011;17318;52.390;9.754;2023-02-28T05:16:08;12.02;;;4.38;;
30533;SDS011;17318;52.390;9.754;2023-02-28T05:18:34;10.25;;;4.72;;
30533;SDS011;17318;52.390;9.754;2023-02-28T05:21:00;13.00;;;4.88;;
30533;SDS011;17318;52.390;9.754;2023-02-28T05:23:28;9.13;;;4.43;;
30533;SDS011;17318;52.390;9.754;2023-02-28T05:25:54;10.07;;;4.50;;
30533;SDS011;17318;52.390;9.754;2023-02-28T05:28:20;7.95;;;4.63;;
30533;SDS011;17318;52.390;9.754;2023-02-28T05:30:46;9.38;;;4.35;;
30533;SDS011;17318;52.390;9.754;2023-02-28T05:33:12;11.00;;;4.28;;
30533;SDS011;17318;52.390;9.754;2023-02-28T05:35:39;13.82;;;4.40;;
30533;SDS011;17318;52.390;9.754;2023-02-28T05:38:05;12.23;;;4.78;;
30533;SDS011;17318;52.390;9.754;2023-02-28T05:40:32;8.13;;;4.43;;
30533;SDS011;17318;52.390;9.754;2023-02-28T05:42:57;11.68;;;4.25;;
30533;SDS011;17318;52.390;9.754;2023-02-28T05:45:23;7.70;;;3.75;;
30533;SDS011;17318;52.390;9.754;2023-02-28T05:47:49;9.43;;;4.22;;
30533;SDS011;17318;52.390;9.754;2023-02-28T05:50:18;9.43;;;3.90;;
30533;SDS011;17318;52.390;9.754;2023-02-28T05:52:43;8.20;;;4.20;;
30533;SDS011;17318;52.390;9.754;2023-02-28T05:55:09;10.18;;;4.47;;
30533;SDS011;17318;52.390;9.754;2023-02-28T05:57:35;5.72;;;3.60;;
30533;SDS011;17318;52.390;9.754;2023-02-28T06:00:00;13.00;;;4.70;;
30533;SDS011;17318;52.390;9.754;2023-02-28T06:02:27;9.27;;;4.25;;
30533;SDS011;17318;52.390;9.754;2023-02-28T06:04:53;8.68;;;4.00;;
30533;SDS011;17318;52.390;9.754;2023-02-28T06:07:19;11.00;;;4.40;;
30533;SDS011;17318;52.390;9.754;2023-02-28T06:09:44;8.68;;;4.07;;
30533;SDS011;17318;52.390;9.754;2023-02-28T06:12:10;19.50;;;4.13;;
30533;SDS011;17318;52.390;9.754;2023-02-28T06:14:35;15.30;;;4.68;;
30533;SDS011;17318;52.390;9.754;2023-02-28T06:17:01;8.63;;;4.25;;
30533;SDS011;17318;52.390;9.754;2023-02-28T06:19:28;10.52;;;4.82;;
30533;SDS011;17318;52.390;9.754;2023-02-28T06:21:55;11.60;;;4.55;;
30533;SDS011;17318;52.390;9.754;2023-02-28T06:24:23;11.83;;;4.53;;
30533;SDS011;17318;52.390;9.754;2023-02-28T06:26:49;9.38;;;4.93;;
30533;SDS011;17318;52.390;9.754;2023-02-28T06:29:16;14.85;;;4.32;;
30533;SDS011;17318;52.390;9.754;2023-02-28T06:31:46;10.63;;;4.18;;
30533;SDS011;17318;52.390;9.754;2023-02-28T06:34:12;24.23;;;7.75;;
30533;SDS011;17318;52.390;9.754;2023-02-28T06:36:39;11.93;;;4.82;;
30533;SDS011;17318;52.390;9.754;2023-02-28T06:39:05;15.85;;;4.82;;
30533;SDS011;17318;52.390;9.754;2023-02-28T06:41:32;12.93;;;4.68;;
30533;SDS011;17318;52.390;9.754;2023-02-28T06:44:03;13.65;;;4.45;;
30533;SDS011;17318;52.390;9.754;2023-02-28T06:48:56;12.43;;;4.88;;
30533;SDS011;17318;52.390;9.754;2023-02-28T06:51:22;24.15;;;5.03;;
30533;SDS011;17318;52.390;9.754;2023-02-28T06:53:49;8.68;;;4.38;;
30533;SDS011;17318;52.390;9.754;2023-02-28T06:56:16;10.57;;;4.40;;
30533;SDS011;17318;52.390;9.754;2023-02-28T06:58:45;10.90;;;4.82;;
30533;SDS011;17318;52.390;9.754;2023-02-28T07:01:12;17.23;;;5.20;;
30533;SDS011;17318;52.390;9.754;2023-02-28T07:03:39;14.02;;;4.85;;
30533;SDS011;17318;52.390;9.754;2023-02-28T07:06:05;11.75;;;5.22;;
30533;SDS011;17318;52.390;9.754;2023-02-28T07:08:31;11.40;;;5.40;;
30533;SDS011;17318;52.390;9.754;2023-02-28T07:10:58;8.13;;;4.38;;
30533;SDS011;17318;52.390;9.754;2023-02-28T07:13:23;11.55;;;4.50;;
30533;SDS011;17318;52.390;9.754;2023-02-28T07:15:53;12.45;;;4.53;;
30533;SDS011;17318;52.390;9.754;2023-02-28T07:18:20;15.27;;;5.03;;
30533;SDS011;17318;52.390;9.754;2023-02-28T07:20:45;13.48;;;4.65;;
30533;SDS011;17318;52.390;9.754;2023-02-28T07:23:11;13.98;;;5.22;;
30533;SDS011;17318;52.390;9.754;2023-02-28T07:25:37;13.32;;;4.93;;
30533;SDS011;17318;52.390;9.754;2023-02-28T07:28:03;11.93;;;3.83;;
30533;SDS011;17318;52.390;9.754;2023-02-28T07:30:28;15.38;;;4.97;;
30533;SDS011;17318;52.390;9.754;2023-02-28T07:32:54;11.38;;;4.13;;
30533;SDS011;17318;52.390;9.754;2023-02-28T07:35:21;12.05;;;4.65;;
30533;SDS011;17318;52.390;9.754;2023-02-28T07:37:47;9.35;;;4.18;;
30533;SDS011;17318;52.390;9.754;2023-02-28T07:40:13;10.32;;;4.50;;
30533;SDS011;17318;52.390;9.754;2023-02-28T07:42:39;12.15;;;5.60;;
30533;SDS011;17318;52.390;9.754;2023-02-28T07:45:06;15.02;;;5.43;;
30533;SDS011;17318;52.390;9.754;2023-02-28T07:47:33;23.67;;;9.82;;
30533;SDS011;17318;52.390;9.754;2023-02-28T07:49:59;14.55;;;5.45;;
30533;SDS011;17318;52.390;9.754;2023-02-28T07:52:25;13.40;;;4.95;;
30533;SDS011;17318;52.390;9.754;2023-02-28T07:54:51;17.27;;;5.07;;
30533;SDS011;17318;52.390;9.754;2023-02-28T07:57:17;17.55;;;5.80;;
30533;SDS011;17318;52.390;9.754;2023-02-28T07:59:43;14.90;;;4.93;;
30533;SDS011;17318;52.390;9.754;2023-02-28T08:02:12;11.55;;;5.05;;
30533;SDS011;17318;52.390;9.754;2023-02-28T08:04:39;15.85;;;5.90;;
30533;SDS011;17318;52.390;9.754;2023-02-28T08:07:05;9.80;;;4.43;;
30533;SDS011;17318;52.390;9.754;2023-02-28T08:09:31;10.43;;;4.60;;
30533;SDS011;17318;52.390;9.754;2023-02-28T08:11:57;9.25;;;4.25;;
30533;SDS011;17318;52.390;9.754;2023-02-28T08:14:23;13.60;;;4.60;;
30533;SDS011;17318;52.390;9.754;2023-02-28T08:16:49;15.50;;;5.20;;
30533;SDS011;17318;52.390;9.754;2023-02-28T08:19:15;19.70;;;5.20;;
30533;SDS011;17318;52.390;9.754;2023-02-28T08:21:40;15.07;;;4.40;;
30533;SDS011;17318;52.390;9.754;2023-02-28T08:24:06;7.88;;;4.03;;
30533;SDS011;17318;52.390;9.754;2023-02-28T08:26:32;13.93;;;4.15;;
30533;SDS011;17318;52.390;9.754;2023-02-28T08:28:57;9.10;;;3.75;;
30533;SDS011;17318;52.390;9.754;2023-02-28T08:31:23;7.57;;;3.47;;
30533;SDS011;17318;52.390;9.754;2023-02-28T08:33:49;12.73;;;3.97;;
30533;SDS011;17318;52.390;9.754;2023-02-28T08:36:17;6.22;;;3.67;;
30533;SDS011;17318;52.390;9.754;2023-02-28T08:38:43;8.40;;;3.28;;
30533;SDS011;17318;52.390;9.754;2023-02-28T08:41:10;7.55;;;3.25;;
30533;SDS011;17318;52.390;9.754;2023-02-28T08:43:37;6.05;;;3.35;;
30533;SDS011;17318;52.390;9.754;2023-02-28T08:46:04;6.93;;;3.00;;
30533;SDS011;17318;52.390;9.754;2023-02-28T08:48:31;15.05;;;6.35;;
30533;SDS011;17318;52.390;9.754;2023-02-28T08:51:01;12.73;;;4.17;;
30533;SDS011;17318;52.390;9.754;2023-02-28T08:53:31;5.68;;;2.70;;
30533;SDS011;17318;52.390;9.754;2023-02-28T08:56:02;6.35;;;2.80;;
30533;SDS011;17318;52.390;9.754;2023-02-28T08:58:30;8.02;;;2.60;;
30533;SDS011;17318;52.390;9.754;2023-02-28T09:00:56;5.93;;;3.20;;
30533;SDS011;17318;52.390;9.754;2023-02-28T09:03:22;5.30;;;2.90;;
30533;SDS011;17318;52.390;9.754;2023-02-28T09:05:51;4.22;;;2.42;;
30533;SDS011;17318;52.390;9.754;2023-02-28T09:08:25;12.43;;;2.67;;
30533;SDS011;17318;52.390;9.754;2023-02-28T09:10:53;3.83;;;1.90;;
30533;SDS011;17318;52.390;9.754;2023-02-28T09:13:21;5.07;;;2.17;;
30533;SDS011;17318;52.390;9.754;2023-02-28T09:15:47;7.47;;;2.72;;
30533;SDS011;17318;52.390;9.754;2023-02-28T09:18:13;4.50;;;1.95;;
30533;SDS011;17318;52.390;9.754;2023-02-28T09:20:39;7.93;;;2.53;;
30533;SDS011;17318;52.390;9.754;2023-02-28T09:23:06;5.33;;;1.70;;
30533;SDS011;17318;52.390;9.754;2023-02-28T09:25:35;3.40;;;1.52;;
30533;SDS011;17318;52.390;9.754;2023-02-28T09:28:01;5.35;;;1.65;;
30533;SDS011;17318;52.390;9.754;2023-02-28T09:30:27;2.38;;;1.27;;
30533;SDS011;17318;52.390;9.754;2023-02-28T09:32:54;2.57;;;1.40;;
30533;SDS011;17318;52.390;9.754;2023-02-28T09:35:21;3.53;;;1.48;;
30533;SDS011;17318;52.390;9.754;2023-02-28T09:37:49;2.53;;;1.33;;
30533;SDS011;17318;52.390;9.754;2023-02-28T09:40:17;3.63;;;1.55;;
30533;SDS011;17318;52.390;9.754;2023-02-28T09:42:47;9.05;;;1.85;;
30533;SDS011;17318;52.390;9.754;2023-02-28T09:45:22;3.20;;;1.60;;
30533;SDS011;17318;52.390;9.754;2023-02-28T09:47:49;4.03;;;1.65;;
30533;SDS011;17318;52.390;9.754;2023-02-28T09:52:51;4.35;;;1.30;;
30533;SDS011;17318;52.390;9.754;2023-02-28T09:57:58;2.58;;;1.35;;
30533;SDS011;17318;52.390;9.754;2023-02-28T10:08:40;2.85;;;1.30;;
30533;SDS011;17318;52.390;9.754;2023-02-28T10:11:22;5.07;;;1.63;;
30533;SDS011;17318;52.390;9.754;2023-02-28T10:13:51;3.97;;;1.48;;
30533;SDS011;17318;52.390;9.754;2023-02-28T10:16:31;5.32;;;2.42;;
30533;SDS011;17318;52.390;9.754;2023-02-28T10:19:03;1.45;;;1.15;;
30533;SDS011;17318;52.390;9.754;2023-02-28T10:21:56;3.08;;;1.65;;
30533;SDS011;17318;52.390;9.754;2023-02-28T10:24:44;3.75;;;1.35;;
30533;SDS011;17318;52.390;9.754;2023-02-28T10:27:15;13.73;;;6.67;;
30533;SDS011;17318;52.390;9.754;2023-02-28T10:29:44;4.30;;;1.73;;
30533;SDS011;17318;52.390;9.754;2023-02-28T10:32:13;2.75;;;1.13;;
30533;SDS011;17318;52.390;9.754;2023-02-28T10:34:41;1.55;;;1.08;;
30533;SDS011;17318;52.390;9.754;2023-02-28T10:37:07;2.50;;;1.52;;
30533;SDS011;17318;52.390;9.754;2023-02-28T10:39:41;4.25;;;1.35;;
30533;SDS011;17318;52.390;9.754;2023-02-28T10:42:20;1.95;;;1.17;;
30533;SDS011;17318;52.390;9.754;2023-02-28T11:01:13;1.58;;;0.80;;
30533;SDS011;17318;52.390;9.754;2023-02-28T11:03:40;2.25;;;1.05;;
30533;SDS011;17318;52.390;9.754;2023-02-28T11:06:07;2.25;;;1.30;;
30533;SDS011;17318;52.390;9.754;2023-02-28T11:08:54;3.28;;;1.23;;
30533;SDS011;17318;52.390;9.754;2023-02-28T11:13:50;7.82;;;2.58;;
30533;SDS011;17318;52.390;9.754;2023-02-28T11:16:18;1.13;;;0.88;;
30533;SDS011;17318;52.390;9.754;2023-02-28T11:18:50;1.38;;;0.77;;
30533;SDS011;17318;52.390;9.754;2023-02-28T11:21:23;1.27;;;0.63;;
30533;SDS011;17318;52.390;9.754;2023-02-28T11:24:44;3.55;;;1.10;;
30533;SDS011;17318;52.390;9.754;2023-02-28T11:26:49;2.35;;;0.60;;
30533;SDS011;17318;52.390;9.754;2023-02-28T11:29:19;1.58;;;0.80;;
30533;SDS011;17318;52.390;9.754;2023-02-28T11:34:35;1.35;;;0.90;;
30533;SDS011;17318;52.390;9.754;2023-02-28T11:37:03;3.17;;;0.85;;
30533;SDS011;17318;52.390;9.754;2023-02-28T11:39:31;1.48;;;0.80;;
30533;SDS011;17318;52.390;9.754;2023-02-28T11:42:07;2.28;;;1.02;;
30533;SDS011;17318;52.390;9.754;2023-02-28T11:47:47;1.60;;;1.00;;
30533;SDS011;17318;52.390;9.754;2023-02-28T11:52:52;1.98;;;0.70;;
30533;SDS011;17318;52.390;9.754;2023-02-28T11:55:24;1.58;;;0.90;;
30533;SDS011;17318;52.390;9.754;2023-02-28T12:00:42;7.10;;;3.35;;
30533;SDS011;17318;52.390;9.754;2023-02-28T12:12:21;21.73;;;2.85;;
30533;SDS011;17318;52.390;9.754;2023-02-28T12:15:16;5.00;;;2.00;;
30533;SDS011;17318;52.390;9.754;2023-02-28T12:20:34;3.45;;;1.42;;
30533;SDS011;17318;52.390;9.754;2023-02-28T12:28:43;6.57;;;2.10;;
30533;SDS011;17318;52.390;9.754;2023-02-28T12:34:00;3.50;;;1.42;;
30533;SDS011;17318;52.390;9.754;2023-02-28T12:36:35;3.92;;;1.05;;
30533;SDS011;17318;52.390;9.754;2023-02-28T12:39:04;1.15;;;0.85;;
30533;SDS011;17318;52.390;9.754;2023-02-28T12:41:54;3.72;;;1.52;;
30533;SDS011;17318;52.390;9.754;2023-02-28T12:44:34;2.25;;;1.20;;
30533;SDS011;17318;52.390;9.754;2023-02-28T12:47:11;3.75;;;1.40;;
30533;SDS011;17318;52.390;9.754;2023-02-28T12:52:08;4.35;;;1.45;;
30533;SDS011;17318;52.390;9.754;2023-02-28T12:54:46;9.10;;;2.80;;
30533;SDS011;17318;52.390;9.754;2023-02-28T13:00:15;4.38;;;1.75;;
30533;SDS011;17318;52.390;9.754;2023-02-28T13:02:57;8.45;;;3.65;;
30533;SDS011;17318;52.390;9.754;2023-02-28T13:08:23;5.88;;;1.83;;
30533;SDS011;17318;52.390;9.754;2023-02-28T13:11:28;2.35;;;1.58;;
30533;SDS011;17318;52.390;9.754;2023-02-28T13:13:57;4.60;;;2.00;;
30533;SDS011;17318;52.390;9.754;2023-02-28T13:16:31;4.20;;;1.50;;
30533;SDS011;17318;52.390;9.754;2023-02-28T13:21:43;4.38;;;1.80;;
30533;SDS011;17318;52.390;9.754;2023-02-28T13:24:10;3.60;;;1.60;;
30533;SDS011;17318;52.390;9.754;2023-02-28T13:34:38;7.07;;;1.90;;
30533;SDS011;17318;52.390;9.754;2023-02-28T13:47:31;3.22;;;1.63;;
30533;SDS011;17318;52.390;9.754;2023-02-28T14:04:56;2.67;;;1.40;;
30533;SDS011;17318;52.390;9.754;2023-02-28T14:07:05;3.00;;;1.70;;
30533;SDS011;17318;52.390;9.754;2023-02-28T14:09:36;2.55;;;1.27;;
30533;SDS011;17318;52.390;9.754;2023-02-28T14:18:27;5.20;;;2.42;;
30533;SDS011;17318;52.390;9.754;2023-02-28T14:24:19;2.63;;;1.35;;
30533;SDS011;17318;52.390;9.754;2023-02-28T14:34:54;5.15;;;1.67;;
30533;SDS011;17318;52.390;9.754;2023-02-28T14:37:31;4.53;;;1.63;;
30533;SDS011;17318;52.390;9.754;2023-02-28T14:40:01;6.63;;;1.40;;
30533;SDS011;17318;52.390;9.754;2023-02-28T14:42:33;3.05;;;1.63;;
30533;SDS011;17318;52.390;9.754;2023-02-28T14:45:00;7.45;;;1.65;;
30533;SDS011;17318;52.390;9.754;2023-02-28T14:47:28;5.32;;;1.83;;
30533;SDS011;17318;52.390;9.754;2023-02-28T14:49:58;3.70;;;1.42;;
30533;SDS011;17318;52.390;9.754;2023-02-28T14:52:26;3.67;;;1.60;;
30533;SDS011;17318;52.390;9.754;2023-02-28T14:54:58;5.28;;;2.83;;
30533;SDS011;17318;52.390;9.754;2023-02-28T14:57:27;3.72;;;1.92;;
30533;SDS011;17318;52.390;9.754;2023-02-28T15:00:46;5.60;;;1.65;;
30533;SDS011;17318;52.390;9.754;2023-02-28T15:02:53;3.47;;;1.70;;
30533;SDS011;17318;52.390;9.754;2023-02-28T15:10:42;2.97;;;1.70;;
30533;SDS011;17318;52.390;9.754;2023-02-28T15:13:13;5.78;;;1.85;;
30533;SDS011;17318;52.390;9.754;2023-02-28T15:18:46;3.70;;;1.50;;
30533;SDS011;17318;52.390;9.754;2023-02-28T15:21:41;6.22;;;1.85;;
30533;SDS011;17318;52.390;9.754;2023-02-28T15:24:22;2.88;;;1.35;;
30533;SDS011;17318;52.390;9.754;2023-02-28T15:27:04;5.15;;;1.60;;
30533;SDS011;17318;52.390;9.754;2023-02-28T15:29:44;4.75;;;1.92;;
30533;SDS011;17318;52.390;9.754;2023-02-28T15:32:32;6.95;;;1.60;;
30533;SDS011;17318;52.390;9.754;2023-02-28T15:35:46;2.45;;;1.75;;
30533;SDS011;17318;52.390;9.754;2023-02-28T15:37:54;3.55;;;1.80;;
30533;SDS011;17318;52.390;9.754;2023-02-28T15:40:42;3.45;;;1.90;;
30533;SDS011;17318;52.390;9.754;2023-02-28T15:43:14;12.20;;;2.50;;
30533;SDS011;17318;52.390;9.754;2023-02-28T15:48:33;5.63;;;2.08;;
30533;SDS011;17318;52.390;9.754;2023-02-28T15:53:33;8.80;;;4.15;;
30533;SDS011;17318;52.390;9.754;2023-02-28T15:56:06;5.43;;;2.10;;
30533;SDS011;17318;52.390;9.754;2023-02-28T15:58:47;3.33;;;1.77;;
30533;SDS011;17318;52.390;9.754;2023-02-28T16:01:17;5.07;;;1.90;;
30533;SDS011;17318;52.390;9.754;2023-02-28T16:03:47;1.88;;;1.25;;
30533;SDS011;17318;52.390;9.754;2023-02-28T16:09:03;2.80;;;1.80;;
30533;SDS011;17318;52.390;9.754;2023-02-28T16:11:32;4.60;;;1.73;;
30533;SDS011;17318;52.390;9.754;2023-02-28T16:14:00;4.55;;;2.40;;
30533;SDS011;17318;52.390;9.754;2023-02-28T16:16:26;3.17;;;1.55;;
30533;SDS011;17318;52.390;9.754;2023-02-28T16:18:52;2.72;;;1.40;;
30533;SDS011;17318;52.390;9.754;2023-02-28T16:21:18;7.00;;;1.90;;
30533;SDS011;17318;52.390;9.754;2023-02-28T16:23:43;4.22;;;1.95;;
30533;SDS011;17318;52.390;9.754;2023-02-28T16:26:12;4.13;;;1.88;;
30533;SDS011;17318;52.390;9.754;2023-02-28T16:28:47;4.28;;;1.77;;
30533;SDS011;17318;52.390;9.754;2023-02-28T16:31:12;7.03;;;2.08;;
30533;SDS011;17318;52.390;9.754;2023-02-28T16:33:41;5.25;;;2.78;;
30533;SDS011;17318;52.390;9.754;2023-02-28T16:36:10;3.78;;;1.88;;
30533;SDS011;17318;52.390;9.754;2023-02-28T16:38:42;10.73;;;2.38;;
30533;SDS011;17318;52.390;9.754;2023-02-28T16:41:07;4.47;;;2.15;;
30533;SDS011;17318;52.390;9.754;2023-02-28T16:43:41;6.45;;;2.28;;
30533;SDS011;17318;52.390;9.754;2023-02-28T16:46:09;5.60;;;1.80;;
30533;SDS011;17318;52.390;9.754;2023-02-28T16:48:37;4.72;;;1.73;;
30533;SDS011;17318;52.390;9.754;2023-02-28T16:51:03;6.97;;;2.38;;
30533;SDS011;17318;52.390;9.754;2023-02-28T16:53:29;11.05;;;2.50;;
30533;SDS011;17318;52.390;9.754;2023-02-28T16:55:55;4.63;;;1.92;;
30533;SDS011;17318;52.390;9.754;2023-02-28T16:58:21;8.63;;;2.85;;
30533;SDS011;17318;52.390;9.754;2023-02-28T17:00:50;9.57;;;2.58;;
30533;SDS011;17318;52.390;9.754;2023-02-28T17:03:22;7.70;;;3.08;;
30533;SDS011;17318;52.390;9.754;2023-02-28T17:05:49;5.53;;;2.33;;
30533;SDS011;17318;52.390;9.754;2023-02-28T17:08:15;6.55;;;2.45;;
30533;SDS011;17318;52.390;9.754;2023-02-28T17:10:41;5.97;;;2.50;;
30533;SDS011;17318;52.390;9.754;2023-02-28T17:13:07;9.13;;;2.58;;
30533;SDS011;17318;52.390;9.754;2023-02-28T17:15:34;5.28;;;2.28;;
30533;SDS011;17318;52.390;9.754;2023-02-28T17:18:01;3.78;;;1.92;;
30533;SDS011;17318;52.390;9.754;2023-02-28T17:20:27;5.55;;;2.20;;
30533;SDS011;17318;52.390;9.754;2023-02-28T17:22:54;11.90;;;2.85;;
30533;SDS011;17318;52.390;9.754;2023-02-28T17:25:21;5.32;;;3.13;;
30533;SDS011;17318;52.390;9.754;2023-02-28T17:27:48;8.20;;;2.40;;
30533;SDS011;17318;52.390;9.754;2023-02-28T17:30:17;4.82;;;2.53;;
30533;SDS011;17318;52.390;9.754;2023-02-28T17:32:48;10.05;;;2.90;;
30533;SDS011;17318;52.390;9.754;2023-02-28T17:35:14;8.85;;;3.03;;
30533;SDS011;17318;52.390;9.754;2023-02-28T17:37:40;6.03;;;2.80;;
30533;SDS011;17318;52.390;9.754;2023-02-28T17:40:09;4.97;;;2.25;;
30533;SDS011;17318;52.390;9.754;2023-02-28T17:42:39;5.85;;;2.13;;
30533;SDS011;17318;52.390;9.754;2023-02-28T17:45:04;7.10;;;2.28;;
30533;SDS011;17318;52.390;9.754;2023-02-28T17:47:30;9.45;;;2.65;;
30533;SDS011;17318;52.390;9.754;2023-02-28T17:49:56;6.45;;;2.67;;
30533;SDS011;17318;52.390;9.754;2023-02-28T17:52:22;9.85;;;2.95;;